sensor_id;sensor_type;location;lat;lon;timestamp;temperature;humidity
22337;DHT22;14992;50.844;4.418;2023-11-19T00:00:47;14.20;99.90
22337;DHT22;14992;50.844;4.418;2023-11-19T00:03:18;14.20;99.90
22337;DHT22;14992;50.844;4.418;2023-11-19T00:05:48;14.20;99.90
22337;DHT22;14992;50.844;4.418;2023-11-19T00:08:18;14.20;99.90
22337;DHT22;14992;50.844;4.418;2023-11-19T00:10:46;14.20;99.90
22337;DHT22;14992;50.844;4.418;2023-11-19T00:13:15;14.30;99.90
22337;DHT22;14992;50.844;4.418;2023-11-19T00:15:44;14.20;99.90
22337;DHT22;14992;50.844;4.418;2023-11-19T00:18:16;14.20;99.90
22337;DHT22;14992;50.844;4.418;2023-11-19T00:20:45;14.20;99.90
22337;DHT22;14992;50.844;4.418;2023-11-19T00:23:14;14.20;99.90
22337;DHT22;14992;50.844;4.418;2023-11-19T00:25:43;14.20;99.90
22337;DHT22;14992;50.844;4.418;2023-11-19T00:28:12;14.20;99.90
22337;DHT22;14992;50.844;4.418;2023-11-19T00:30:41;14.20;99.90
22337;DHT22;14992;50.844;4.418;2023-11-19T00:33:10;14.20;99.90
22337;DHT22;14992;50.844;4.418;2023-11-19T00:35:40;14.20;99.90
22337;DHT22;14992;50.844;4.418;2023-11-19T00:38:09;14.20;99.90
22337;DHT22;14992;50.844;4.418;2023-11-19T00:40:37;14.20;99.90
22337;DHT22;14992;50.844;4.418;2023-11-19T00:43:08;14.20;99.90
22337;DHT22;14992;50.844;4.418;2023-11-19T00:45:37;14.10;99.90
22337;DHT22;14992;50.844;4.418;2023-11-19T00:48:06;14.20;99.90
22337;DHT22;14992;50.844;4.418;2023-11-19T00:50:35;14.20;99.90
22337;DHT22;14992;50.844;4.418;2023-11-19T00:53:07;14.20;99.90
22337;DHT22;14992;50.844;4.418;2023-11-19T00:55:36;14.20;99.90
22337;DHT22;14992;50.844;4.418;2023-11-19T00:58:13;14.20;99.90
22337;DHT22;14992;50.844;4.418;2023-11-19T01:00:42;14.20;99.90
22337;DHT22;14992;50.844;4.418;2023-11-19T01:03:12;14.20;99.90
22337;DHT22;14992;50.844;4.418;2023-11-19T01:05:42;14.20;99.90
22337;DHT22;14992;50.844;4.418;2023-11-19T01:08:13;14.10;99.90
22337;DHT22;14992;50.844;4.418;2023-11-19T01:10:43;14.10;99.90
22337;DHT22;14992;50.844;4.418;2023-11-19T01:13:12;14.10;99.90
22337;DHT22;14992;50.844;4.418;2023-11-19T01:15:41;14.10;99.90
22337;DHT22;14992;50.844;4.418;2023-11-19T01:18:10;14.20;99.90
22337;DHT22;14992;50.844;4.418;2023-11-19T01:20:40;14.20;99.90
22337;DHT22;14992;50.844;4.418;2023-11-19T01:23:09;14.20;99.90
22337;DHT22;14992;50.844;4.418;2023-11-19T01:25:39;14.20;99.90
22337;DHT22;14992;50.844;4.418;2023-11-19T01:28:08;14.20;99.90
22337;DHT22;14992;50.844;4.418;2023-11-19T01:30:37;14.20;99.90
22337;DHT22;14992;50.844;4.418;2023-11-19T01:33:06;14.20;99.90
22337;DHT22;14992;50.844;4.418;2023-11-19T01:35:35;14.20;99.90
22337;DHT22;14992;50.844;4.418;2023-11-19T01:38:04;14.20;99.90
22337;DHT22;14992;50.844;4.418;2023-11-19T01:40:32;14.30;99.90
22337;DHT22;14992;50.844;4.418;2023-11-19T01:43:03;14.20;99.90
22337;DHT22;14992;50.844;4.418;2023-11-19T01:45:33;14.10;99.90
22337;DHT22;14992;50.844;4.418;2023-11-19T01:48:03;14.10;99.90
22337;DHT22;14992;50.844;4.418;2023-11-19T01:50:33;14.10;99.90
22337;DHT22;14992;50.844;4.418;2023-11-19T01:53:03;14.00;99.90
22337;DHT22;14992;50.844;4.418;2023-11-19T01:55:32;14.00;99.90
22337;DHT22;14992;50.844;4.418;2023-11-19T01:58:03;14.00;99.90
22337;DHT22;14992;50.844;4.418;2023-11-19T02:00:31;14.10;99.90
22337;DHT22;14992;50.844;4.418;2023-11-19T02:03:02;14.00;99.90
22337;DHT22;14992;50.844;4.418;2023-11-19T02:05:32;14.00;99.90
22337;DHT22;14992;50.844;4.418;2023-11-19T02:08:01;14.10;99.90
22337;DHT22;14992;50.844;4.418;2023-11-19T02:10:30;14.00;99.90
22337;DHT22;14992;50.844;4.418;2023-11-19T02:13:01;14.00;99.90
22337;DHT22;14992;50.844;4.418;2023-11-19T02:15:34;13.90;99.90
22337;DHT22;14992;50.844;4.418;2023-11-19T02:18:19;13.90;99.90
22337;DHT22;14992;50.844;4.418;2023-11-19T02:20:49;13.90;99.90
22337;DHT22;14992;50.844;4.418;2023-11-19T02:23:20;13.80;99.90
22337;DHT22;14992;50.844;4.418;2023-11-19T02:26:00;13.80;99.90
22337;DHT22;14992;50.844;4.418;2023-11-19T02:28:32;13.80;99.90
22337;DHT22;14992;50.844;4.418;2023-11-19T02:31:01;13.70;99.90
22337;DHT22;14992;50.844;4.418;2023-11-19T02:33:32;13.80;99.90
22337;DHT22;14992;50.844;4.418;2023-11-19T02:36:01;13.70;99.90
22337;DHT22;14992;50.844;4.418;2023-11-19T02:38:31;13.80;99.90
22337;DHT22;14992;50.844;4.418;2023-11-19T02:41:00;13.70;99.90
22337;DHT22;14992;50.844;4.418;2023-11-19T02:43:35;13.80;99.90
22337;DHT22;14992;50.844;4.418;2023-11-19T02:46:06;13.80;99.90
22337;DHT22;14992;50.844;4.418;2023-11-19T02:48:38;13.90;99.90
22337;DHT22;14992;50.844;4.418;2023-11-19T02:51:07;13.90;99.90
22337;DHT22;14992;50.844;4.418;2023-11-19T02:53:38;13.90;99.90
22337;DHT22;14992;50.844;4.418;2023-11-19T02:56:08;13.90;99.90
22337;DHT22;14992;50.844;4.418;2023-11-19T02:58:48;13.80;99.90
22337;DHT22;14992;50.844;4.418;2023-11-19T03:01:22;13.80;99.90
22337;DHT22;14992;50.844;4.418;2023-11-19T03:03:58;13.90;99.90
22337;DHT22;14992;50.844;4.418;2023-11-19T03:06:29;13.80;99.90
22337;DHT22;14992;50.844;4.418;2023-11-19T03:08:58;13.80;99.90
22337;DHT22;14992;50.844;4.418;2023-11-19T03:11:33;13.70;99.90
22337;DHT22;14992;50.844;4.418;2023-11-19T03:14:04;13.50;99.90
22337;DHT22;14992;50.844;4.418;2023-11-19T03:16:32;13.50;99.90
22337;DHT22;14992;50.844;4.418;2023-11-19T03:19:01;13.50;99.90
22337;DHT22;14992;50.844;4.418;2023-11-19T03:21:32;13.40;99.90
22337;DHT22;14992;50.844;4.418;2023-11-19T03:24:01;13.40;99.90
22337;DHT22;14992;50.844;4.418;2023-11-19T03:26:30;13.30;99.90
22337;DHT22;14992;50.844;4.418;2023-11-19T03:29:01;13.30;99.90
22337;DHT22;14992;50.844;4.418;2023-11-19T03:31:31;13.20;99.90
22337;DHT22;14992;50.844;4.418;2023-11-19T03:34:00;13.20;99.90
22337;DHT22;14992;50.844;4.418;2023-11-19T03:36:32;13.10;99.90
22337;DHT22;14992;50.844;4.418;2023-11-19T03:39:01;13.10;99.90
22337;DHT22;14992;50.844;4.418;2023-11-19T03:41:30;13.10;99.90
22337;DHT22;14992;50.844;4.418;2023-11-19T03:44:02;13.00;99.90
22337;DHT22;14992;50.844;4.418;2023-11-19T03:46:32;13.10;99.90
22337;DHT22;14992;50.844;4.418;2023-11-19T03:49:02;13.00;99.90
22337;DHT22;14992;50.844;4.418;2023-11-19T03:51:33;13.00;99.90
22337;DHT22;14992;50.844;4.418;2023-11-19T03:54:02;13.00;99.90
22337;DHT22;14992;50.844;4.418;2023-11-19T03:56:31;13.00;99.90
22337;DHT22;14992;50.844;4.418;2023-11-19T03:59:00;12.90;99.90
22337;DHT22;14992;50.844;4.418;2023-11-19T04:01:29;12.90;99.90
22337;DHT22;14992;50.844;4.418;2023-11-19T04:03:59;12.90;99.90
22337;DHT22;14992;50.844;4.418;2023-11-19T04:06:28;12.90;99.90
22337;DHT22;14992;50.844;4.418;2023-11-19T04:08:57;12.90;99.90
22337;DHT22;14992;50.844;4.418;2023-11-19T04:11:25;12.90;99.90
22337;DHT22;14992;50.844;4.418;2023-11-19T04:13:54;13.00;99.90
22337;DHT22;14992;50.844;4.418;2023-11-19T04:16:26;13.10;99.90
22337;DHT22;14992;50.844;4.418;2023-11-19T04:18:58;13.10;99.90
22337;DHT22;14992;50.844;4.418;2023-11-19T04:21:27;13.10;99.90
22337;DHT22;14992;50.844;4.418;2023-11-19T04:23:55;13.10;99.90
22337;DHT22;14992;50.844;4.418;2023-11-19T04:26:24;13.10;99.90
22337;DHT22;14992;50.844;4.418;2023-11-19T04:28:56;13.10;99.90
22337;DHT22;14992;50.844;4.418;2023-11-19T04:31:29;13.00;99.90
22337;DHT22;14992;50.844;4.418;2023-11-19T04:34:00;13.00;99.90
22337;DHT22;14992;50.844;4.418;2023-11-19T04:36:29;12.90;99.90
22337;DHT22;14992;50.844;4.418;2023-11-19T04:38:57;13.00;99.90
22337;DHT22;14992;50.844;4.418;2023-11-19T04:41:27;12.90;99.90
22337;DHT22;14992;50.844;4.418;2023-11-19T04:43:56;12.90;99.90
22337;DHT22;14992;50.844;4.418;2023-11-19T04:46:25;12.90;99.90
22337;DHT22;14992;50.844;4.418;2023-11-19T04:48:54;12.90;99.90
22337;DHT22;14992;50.844;4.418;2023-11-19T04:51:24;12.90;99.90
22337;DHT22;14992;50.844;4.418;2023-11-19T04:53:53;12.90;99.90
22337;DHT22;14992;50.844;4.418;2023-11-19T04:56:22;12.90;99.90
22337;DHT22;14992;50.844;4.418;2023-11-19T04:58:51;12.90;99.90
22337;DHT22;14992;50.844;4.418;2023-11-19T05:01:20;12.90;99.90
22337;DHT22;14992;50.844;4.418;2023-11-19T05:03:49;13.00;99.90
22337;DHT22;14992;50.844;4.418;2023-11-19T05:06:19;13.00;99.90
22337;DHT22;14992;50.844;4.418;2023-11-19T05:08:49;13.00;99.90
22337;DHT22;14992;50.844;4.418;2023-11-19T05:11:17;13.00;99.90
22337;DHT22;14992;50.844;4.418;2023-11-19T05:13:47;13.10;99.90
22337;DHT22;14992;50.844;4.418;2023-11-19T05:16:16;13.00;99.90
22337;DHT22;14992;50.844;4.418;2023-11-19T05:18:45;12.90;99.90
22337;DHT22;14992;50.844;4.418;2023-11-19T05:21:13;12.80;99.90
22337;DHT22;14992;50.844;4.418;2023-11-19T05:23:41;12.80;99.90
22337;DHT22;14992;50.844;4.418;2023-11-19T05:26:18;12.70;99.90
22337;DHT22;14992;50.844;4.418;2023-11-19T05:28:47;12.70;99.90
22337;DHT22;14992;50.844;4.418;2023-11-19T05:31:17;12.60;99.90
22337;DHT22;14992;50.844;4.418;2023-11-19T05:33:46;12.70;99.90
22337;DHT22;14992;50.844;4.418;2023-11-19T05:36:15;12.70;99.90
22337;DHT22;14992;50.844;4.418;2023-11-19T05:38:44;12.80;99.90
22337;DHT22;14992;50.844;4.418;2023-11-19T05:41:13;12.80;99.90
22337;DHT22;14992;50.844;4.418;2023-11-19T05:43:43;12.90;99.90
22337;DHT22;14992;50.844;4.418;2023-11-19T05:46:12;12.90;99.90
22337;DHT22;14992;50.844;4.418;2023-11-19T05:48:44;13.00;99.90
22337;DHT22;14992;50.844;4.418;2023-11-19T05:51:14;12.90;99.90
22337;DHT22;14992;50.844;4.418;2023-11-19T05:53:43;12.90;99.90
22337;DHT22;14992;50.844;4.418;2023-11-19T05:56:13;12.80;99.90
22337;DHT22;14992;50.844;4.418;2023-11-19T05:58:45;12.80;99.90
22337;DHT22;14992;50.844;4.418;2023-11-19T06:01:15;12.70;99.90
22337;DHT22;14992;50.844;4.418;2023-11-19T06:03:44;12.60;99.90
22337;DHT22;14992;50.844;4.418;2023-11-19T06:06:17;12.60;99.90
22337;DHT22;14992;50.844;4.418;2023-11-19T06:08:46;12.70;99.90
22337;DHT22;14992;50.844;4.418;2023-11-19T06:11:15;12.60;99.90
22337;DHT22;14992;50.844;4.418;2023-11-19T06:13:47;12.50;99.90
22337;DHT22;14992;50.844;4.418;2023-11-19T06:16:18;12.50;99.90
22337;DHT22;14992;50.844;4.418;2023-11-19T06:18:47;12.60;99.90
22337;DHT22;14992;50.844;4.418;2023-11-19T06:21:15;12.50;99.90
22337;DHT22;14992;50.844;4.418;2023-11-19T06:23:44;12.50;99.90
22337;DHT22;14992;50.844;4.418;2023-11-19T06:26:13;12.40;99.90
22337;DHT22;14992;50.844;4.418;2023-11-19T06:28:42;12.40;99.90
22337;DHT22;14992;50.844;4.418;2023-11-19T06:31:12;12.30;99.90
22337;DHT22;14992;50.844;4.418;2023-11-19T06:33:43;12.20;99.90
22337;DHT22;14992;50.844;4.418;2023-11-19T06:36:14;12.30;99.90
22337;DHT22;14992;50.844;4.418;2023-11-19T06:38:43;12.20;99.90
22337;DHT22;14992;50.844;4.418;2023-11-19T06:41:12;12.20;99.90
22337;DHT22;14992;50.844;4.418;2023-11-19T06:43:41;12.20;99.90
22337;DHT22;14992;50.844;4.418;2023-11-19T06:46:19;12.20;99.90
22337;DHT22;14992;50.844;4.418;2023-11-19T06:48:48;12.20;99.90
22337;DHT22;14992;50.844;4.418;2023-11-19T06:51:16;12.20;99.90
22337;DHT22;14992;50.844;4.418;2023-11-19T06:53:45;12.20;99.90
22337;DHT22;14992;50.844;4.418;2023-11-19T06:56:18;12.20;99.90
22337;DHT22;14992;50.844;4.418;2023-11-19T06:58:47;12.20;99.90
22337;DHT22;14992;50.844;4.418;2023-11-19T07:01:18;12.10;99.90
22337;DHT22;14992;50.844;4.418;2023-11-19T07:03:47;12.10;99.90
22337;DHT22;14992;50.844;4.418;2023-11-19T07:06:17;12.10;99.90
22337;DHT22;14992;50.844;4.418;2023-11-19T07:08:46;12.20;99.90
22337;DHT22;14992;50.844;4.418;2023-11-19T07:11:14;12.10;99.90
22337;DHT22;14992;50.844;4.418;2023-11-19T07:13:44;12.20;99.90
22337;DHT22;14992;50.844;4.418;2023-11-19T07:16:14;12.20;99.90
22337;DHT22;14992;50.844;4.418;2023-11-19T07:18:44;12.30;99.90
22337;DHT22;14992;50.844;4.418;2023-11-19T07:21:13;12.40;99.90
22337;DHT22;14992;50.844;4.418;2023-11-19T07:23:42;12.30;99.90
22337;DHT22;14992;50.844;4.418;2023-11-19T07:26:11;12.30;99.90
22337;DHT22;14992;50.844;4.418;2023-11-19T07:28:39;12.30;99.90
22337;DHT22;14992;50.844;4.418;2023-11-19T07:31:08;12.30;99.90
22337;DHT22;14992;50.844;4.418;2023-11-19T07:33:37;12.30;99.90
22337;DHT22;14992;50.844;4.418;2023-11-19T07:36:12;12.30;99.90
22337;DHT22;14992;50.844;4.418;2023-11-19T07:38:41;12.40;99.90
22337;DHT22;14992;50.844;4.418;2023-11-19T07:41:10;12.40;99.90
22337;DHT22;14992;50.844;4.418;2023-11-19T07:43:43;12.30;99.90
22337;DHT22;14992;50.844;4.418;2023-11-19T07:46:12;12.30;99.90
22337;DHT22;14992;50.844;4.418;2023-11-19T07:48:41;12.30;99.90
22337;DHT22;14992;50.844;4.418;2023-11-19T07:51:12;12.20;99.90
22337;DHT22;14992;50.844;4.418;2023-11-19T07:53:41;12.30;99.90
22337;DHT22;14992;50.844;4.418;2023-11-19T07:56:10;12.30;99.90
22337;DHT22;14992;50.844;4.418;2023-11-19T07:58:39;12.30;99.90
22337;DHT22;14992;50.844;4.418;2023-11-19T08:01:08;12.40;99.90
22337;DHT22;14992;50.844;4.418;2023-11-19T08:03:37;12.50;99.90
22337;DHT22;14992;50.844;4.418;2023-11-19T08:06:06;12.50;99.90
22337;DHT22;14992;50.844;4.418;2023-11-19T08:08:37;12.60;99.90
22337;DHT22;14992;50.844;4.418;2023-11-19T08:11:06;12.50;99.90
22337;DHT22;14992;50.844;4.418;2023-11-19T08:13:35;12.50;99.90
22337;DHT22;14992;50.844;4.418;2023-11-19T08:16:05;12.40;99.90
22337;DHT22;14992;50.844;4.418;2023-11-19T08:18:34;12.50;99.90
22337;DHT22;14992;50.844;4.418;2023-11-19T08:21:03;12.60;99.90
22337;DHT22;14992;50.844;4.418;2023-11-19T08:23:32;12.60;99.90
22337;DHT22;14992;50.844;4.418;2023-11-19T08:26:02;12.50;99.90
22337;DHT22;14992;50.844;4.418;2023-11-19T08:28:32;12.50;99.90
22337;DHT22;14992;50.844;4.418;2023-11-19T08:31:02;12.50;99.90
22337;DHT22;14992;50.844;4.418;2023-11-19T08:33:32;12.50;99.90
22337;DHT22;14992;50.844;4.418;2023-11-19T08:36:01;12.60;99.90
22337;DHT22;14992;50.844;4.418;2023-11-19T08:38:31;12.80;99.90
22337;DHT22;14992;50.844;4.418;2023-11-19T08:41:01;12.90;99.90
22337;DHT22;14992;50.844;4.418;2023-11-19T08:43:30;13.10;99.90
22337;DHT22;14992;50.844;4.418;2023-11-19T08:45:59;13.10;99.90
22337;DHT22;14992;50.844;4.418;2023-11-19T08:48:28;13.00;99.90
22337;DHT22;14992;50.844;4.418;2023-11-19T08:50:57;13.00;99.90
22337;DHT22;14992;50.844;4.418;2023-11-19T08:53:27;12.90;99.90
22337;DHT22;14992;50.844;4.418;2023-11-19T08:55:55;12.80;99.90
22337;DHT22;14992;50.844;4.418;2023-11-19T08:58:26;12.80;99.90
22337;DHT22;14992;50.844;4.418;2023-11-19T09:00:54;12.80;99.90
22337;DHT22;14992;50.844;4.418;2023-11-19T09:03:23;12.80;99.90
22337;DHT22;14992;50.844;4.418;2023-11-19T09:05:54;12.90;99.90
22337;DHT22;14992;50.844;4.418;2023-11-19T09:08:22;13.10;99.90
22337;DHT22;14992;50.844;4.418;2023-11-19T09:10:51;13.10;99.90
22337;DHT22;14992;50.844;4.418;2023-11-19T09:13:20;13.20;99.90
22337;DHT22;14992;50.844;4.418;2023-11-19T09:15:50;13.10;99.90
22337;DHT22;14992;50.844;4.418;2023-11-19T09:18:19;13.00;99.90
22337;DHT22;14992;50.844;4.418;2023-11-19T09:20:48;13.00;99.90
22337;DHT22;14992;50.844;4.418;2023-11-19T09:23:17;12.90;99.90
22337;DHT22;14992;50.844;4.418;2023-11-19T09:25:46;13.00;99.90
22337;DHT22;14992;50.844;4.418;2023-11-19T09:28:15;13.10;99.90
22337;DHT22;14992;50.844;4.418;2023-11-19T09:30:43;13.20;99.90
22337;DHT22;14992;50.844;4.418;2023-11-19T09:33:13;13.30;99.90
22337;DHT22;14992;50.844;4.418;2023-11-19T09:35:43;13.30;99.90
22337;DHT22;14992;50.844;4.418;2023-11-19T09:38:11;13.20;99.90
22337;DHT22;14992;50.844;4.418;2023-11-19T09:40:41;13.20;99.90
22337;DHT22;14992;50.844;4.418;2023-11-19T09:43:10;13.20;99.90
22337;DHT22;14992;50.844;4.418;2023-11-19T09:45:45;13.20;99.90
22337;DHT22;14992;50.844;4.418;2023-11-19T09:48:18;13.20;99.90
22337;DHT22;14992;50.844;4.418;2023-11-19T09:50:48;13.20;99.90
22337;DHT22;14992;50.844;4.418;2023-11-19T09:53:17;13.30;99.90
22337;DHT22;14992;50.844;4.418;2023-11-19T09:55:48;13.40;99.90
22337;DHT22;14992;50.844;4.418;2023-11-19T09:58:17;13.50;99.90
22337;DHT22;14992;50.844;4.418;2023-11-19T10:00:47;13.50;99.90
22337;DHT22;14992;50.844;4.418;2023-11-19T10:03:38;13.50;99.90
22337;DHT22;14992;50.844;4.418;2023-11-19T10:06:08;13.50;99.90
22337;DHT22;14992;50.844;4.418;2023-11-19T10:08:37;13.60;99.90
22337;DHT22;14992;50.844;4.418;2023-11-19T10:11:07;13.60;99.90
22337;DHT22;14992;50.844;4.418;2023-11-19T10:13:38;13.50;99.90
22337;DHT22;14992;50.844;4.418;2023-11-19T10:16:08;13.60;99.90
22337;DHT22;14992;50.844;4.418;2023-11-19T10:18:45;13.50;99.90
22337;DHT22;14992;50.844;4.418;2023-11-19T10:21:14;13.60;99.90
22337;DHT22;14992;50.844;4.418;2023-11-19T10:23:48;13.60;99.90
22337;DHT22;14992;50.844;4.418;2023-11-19T10:26:19;13.60;99.90
22337;DHT22;14992;50.844;4.418;2023-11-19T10:28:49;13.80;99.90
22337;DHT22;14992;50.844;4.418;2023-11-19T10:31:19;14.00;99.90
22337;DHT22;14992;50.844;4.418;2023-11-19T10:33:54;14.20;99.90
22337;DHT22;14992;50.844;4.418;2023-11-19T10:36:37;14.20;99.90
22337;DHT22;14992;50.844;4.418;2023-11-19T10:39:08;14.30;99.90
22337;DHT22;14992;50.844;4.418;2023-11-19T10:41:37;14.50;99.90
22337;DHT22;14992;50.844;4.418;2023-11-19T10:44:06;14.50;99.90
22337;DHT22;14992;50.844;4.418;2023-11-19T10:46:37;14.30;99.90
22337;DHT22;14992;50.844;4.418;2023-11-19T10:49:09;14.30;99.90
22337;DHT22;14992;50.844;4.418;2023-11-19T10:51:44;14.30;99.90
22337;DHT22;14992;50.844;4.418;2023-11-19T10:54:16;14.20;99.90
22337;DHT22;14992;50.844;4.418;2023-11-19T10:56:54;14.20;99.90
22337;DHT22;14992;50.844;4.418;2023-11-19T10:59:29;14.20;99.90
22337;DHT22;14992;50.844;4.418;2023-11-19T11:02:03;14.20;99.90
22337;DHT22;14992;50.844;4.418;2023-11-19T11:04:40;14.00;99.90
22337;DHT22;14992;50.844;4.418;2023-11-19T11:07:10;13.90;99.90
22337;DHT22;14992;50.844;4.418;2023-11-19T11:09:39;14.00;99.90
22337;DHT22;14992;50.844;4.418;2023-11-19T11:12:11;14.00;99.90
22337;DHT22;14992;50.844;4.418;2023-11-19T11:14:42;14.00;99.90
22337;DHT22;14992;50.844;4.418;2023-11-19T11:17:15;14.10;99.90
22337;DHT22;14992;50.844;4.418;2023-11-19T11:19:47;14.10;99.90
22337;DHT22;14992;50.844;4.418;2023-11-19T11:22:17;14.10;99.90
22337;DHT22;14992;50.844;4.418;2023-11-19T11:25:20;14.00;99.90
22337;DHT22;14992;50.844;4.418;2023-11-19T11:30:53;13.90;99.90
22337;DHT22;14992;50.844;4.418;2023-11-19T11:33:36;13.90;99.90
22337;DHT22;14992;50.844;4.418;2023-11-19T11:36:17;14.00;99.90
22337;DHT22;14992;50.844;4.418;2023-11-19T11:38:48;14.00;99.90
22337;DHT22;14992;50.844;4.418;2023-11-19T11:41:19;14.00;99.90
22337;DHT22;14992;50.844;4.418;2023-11-19T11:43:48;14.00;99.90
22337;DHT22;14992;50.844;4.418;2023-11-19T11:46:54;13.90;99.90
22337;DHT22;14992;50.844;4.418;2023-11-19T11:49:27;13.90;99.90
22337;DHT22;14992;50.844;4.418;2023-11-19T11:52:04;14.00;99.90
22337;DHT22;14992;50.844;4.418;2023-11-19T11:54:34;14.10;99.90
22337;DHT22;14992;50.844;4.418;2023-11-19T11:57:06;14.20;99.90
22337;DHT22;14992;50.844;4.418;2023-11-19T11:59:42;14.30;99.90
22337;DHT22;14992;50.844;4.418;2023-11-19T12:02:14;14.60;99.90
22337;DHT22;14992;50.844;4.418;2023-11-19T12:04:46;15.00;99.90
22337;DHT22;14992;50.844;4.418;2023-11-19T12:07:19;15.20;99.90
22337;DHT22;14992;50.844;4.418;2023-11-19T12:09:52;15.30;99.90
22337;DHT22;14992;50.844;4.418;2023-11-19T12:12:25;15.10;99.90
22337;DHT22;14992;50.844;4.418;2023-11-19T12:15:06;14.90;99.90
22337;DHT22;14992;50.844;4.418;2023-11-19T12:17:41;15.00;99.90
22337;DHT22;14992;50.844;4.418;2023-11-19T12:20:12;14.80;99.90
22337;DHT22;14992;50.844;4.418;2023-11-19T12:22:44;14.70;99.90
22337;DHT22;14992;50.844;4.418;2023-11-19T12:25:13;14.60;99.90
22337;DHT22;14992;50.844;4.418;2023-11-19T12:27:45;14.50;99.90
22337;DHT22;14992;50.844;4.418;2023-11-19T12:30:17;14.30;99.90
22337;DHT22;14992;50.844;4.418;2023-11-19T12:32:46;14.20;99.90
22337;DHT22;14992;50.844;4.418;2023-11-19T12:35:15;14.10;99.90
22337;DHT22;14992;50.844;4.418;2023-11-19T12:37:46;14.20;99.90
22337;DHT22;14992;50.844;4.418;2023-11-19T12:40:16;14.10;99.90
22337;DHT22;14992;50.844;4.418;2023-11-19T12:42:46;13.90;99.90
22337;DHT22;14992;50.844;4.418;2023-11-19T12:45:16;13.90;99.90
22337;DHT22;14992;50.844;4.418;2023-11-19T12:47:47;13.90;99.90
22337;DHT22;14992;50.844;4.418;2023-11-19T12:50:17;13.90;99.90
22337;DHT22;14992;50.844;4.418;2023-11-19T12:52:56;13.90;99.90
22337;DHT22;14992;50.844;4.418;2023-11-19T12:55:27;14.00;99.90
22337;DHT22;14992;50.844;4.418;2023-11-19T12:57:57;14.10;99.90
22337;DHT22;14992;50.844;4.418;2023-11-19T13:00:27;14.30;99.90
22337;DHT22;14992;50.844;4.418;2023-11-19T13:02:57;14.50;99.90
22337;DHT22;14992;50.844;4.418;2023-11-19T13:05:28;14.50;99.90
22337;DHT22;14992;50.844;4.418;2023-11-19T13:08:00;14.40;99.90
22337;DHT22;14992;50.844;4.418;2023-11-19T13:10:30;14.30;99.90
22337;DHT22;14992;50.844;4.418;2023-11-19T13:13:03;14.30;99.90
22337;DHT22;14992;50.844;4.418;2023-11-19T13:15:33;14.30;99.90
22337;DHT22;14992;50.844;4.418;2023-11-19T13:18:02;14.20;99.90
22337;DHT22;14992;50.844;4.418;2023-11-19T13:20:31;14.30;99.90
22337;DHT22;14992;50.844;4.418;2023-11-19T13:23:02;14.30;99.90
22337;DHT22;14992;50.844;4.418;2023-11-19T13:25:31;14.40;99.90
22337;DHT22;14992;50.844;4.418;2023-11-19T13:28:00;14.40;99.90
22337;DHT22;14992;50.844;4.418;2023-11-19T13:30:29;14.40;99.90
22337;DHT22;14992;50.844;4.418;2023-11-19T13:32:59;14.30;99.90
22337;DHT22;14992;50.844;4.418;2023-11-19T13:35:28;14.20;99.90
22337;DHT22;14992;50.844;4.418;2023-11-19T13:37:57;14.20;99.90
22337;DHT22;14992;50.844;4.418;2023-11-19T13:40:27;14.20;99.90
22337;DHT22;14992;50.844;4.418;2023-11-19T13:42:56;14.10;99.90
22337;DHT22;14992;50.844;4.418;2023-11-19T13:45:25;14.10;99.90
22337;DHT22;14992;50.844;4.418;2023-11-19T13:47:54;14.00;99.90
22337;DHT22;14992;50.844;4.418;2023-11-19T13:50:22;14.00;99.90
22337;DHT22;14992;50.844;4.418;2023-11-19T13:52:51;13.90;99.90
22337;DHT22;14992;50.844;4.418;2023-11-19T13:55:20;13.70;99.90
22337;DHT22;14992;50.844;4.418;2023-11-19T13:57:51;13.60;99.90
22337;DHT22;14992;50.844;4.418;2023-11-19T14:00:19;13.60;99.90
22337;DHT22;14992;50.844;4.418;2023-11-19T14:02:50;13.60;99.90
22337;DHT22;14992;50.844;4.418;2023-11-19T14:05:19;13.50;99.90
22337;DHT22;14992;50.844;4.418;2023-11-19T14:07:51;13.70;99.90
22337;DHT22;14992;50.844;4.418;2023-11-19T14:10:21;13.70;99.90
22337;DHT22;14992;50.844;4.418;2023-11-19T14:12:51;13.70;99.90
22337;DHT22;14992;50.844;4.418;2023-11-19T14:15:20;13.80;99.90
22337;DHT22;14992;50.844;4.418;2023-11-19T14:17:49;13.80;99.90
22337;DHT22;14992;50.844;4.418;2023-11-19T14:20:18;13.90;99.90
22337;DHT22;14992;50.844;4.418;2023-11-19T14:22:48;13.90;99.90
22337;DHT22;14992;50.844;4.418;2023-11-19T14:25:18;13.80;99.90
22337;DHT22;14992;50.844;4.418;2023-11-19T14:27:46;13.80;99.90
22337;DHT22;14992;50.844;4.418;2023-11-19T14:30:17;13.80;99.90
22337;DHT22;14992;50.844;4.418;2023-11-19T14:32:46;13.70;99.90
22337;DHT22;14992;50.844;4.418;2023-11-19T14:35:16;13.60;99.90
22337;DHT22;14992;50.844;4.418;2023-11-19T14:37:45;13.50;99.90
22337;DHT22;14992;50.844;4.418;2023-11-19T14:40:14;13.40;99.90
22337;DHT22;14992;50.844;4.418;2023-11-19T14:42:43;13.30;99.90
22337;DHT22;14992;50.844;4.418;2023-11-19T14:45:11;13.20;99.90
22337;DHT22;14992;50.844;4.418;2023-11-19T14:47:42;13.20;99.90
22337;DHT22;14992;50.844;4.418;2023-11-19T14:50:10;13.20;99.90
22337;DHT22;14992;50.844;4.418;2023-11-19T14:52:39;13.20;99.90
22337;DHT22;14992;50.844;4.418;2023-11-19T14:55:09;13.20;99.90
22337;DHT22;14992;50.844;4.418;2023-11-19T14:57:38;13.30;99.90
22337;DHT22;14992;50.844;4.418;2023-11-19T15:00:14;13.40;99.90
22337;DHT22;14992;50.844;4.418;2023-11-19T15:02:44;13.40;99.90
22337;DHT22;14992;50.844;4.418;2023-11-19T15:05:13;13.30;99.90
22337;DHT22;14992;50.844;4.418;2023-11-19T15:07:42;13.30;99.90
22337;DHT22;14992;50.844;4.418;2023-11-19T15:10:11;13.30;99.90
22337;DHT22;14992;50.844;4.418;2023-11-19T15:12:40;13.30;99.90
22337;DHT22;14992;50.844;4.418;2023-11-19T15:15:09;13.30;99.90
22337;DHT22;14992;50.844;4.418;2023-11-19T15:17:41;13.30;99.90
22337;DHT22;14992;50.844;4.418;2023-11-19T15:20:12;13.40;99.90
22337;DHT22;14992;50.844;4.418;2023-11-19T15:22:42;13.40;99.90
22337;DHT22;14992;50.844;4.418;2023-11-19T15:25:11;13.50;99.90
22337;DHT22;14992;50.844;4.418;2023-11-19T15:27:39;13.50;99.90
22337;DHT22;14992;50.844;4.418;2023-11-19T15:30:09;13.50;99.90
22337;DHT22;14992;50.844;4.418;2023-11-19T15:32:38;13.60;99.90
22337;DHT22;14992;50.844;4.418;2023-11-19T15:35:08;13.60;99.90
22337;DHT22;14992;50.844;4.418;2023-11-19T15:37:41;13.60;99.90
22337;DHT22;14992;50.844;4.418;2023-11-19T15:40:12;13.60;99.90
22337;DHT22;14992;50.844;4.418;2023-11-19T15:42:41;13.60;99.90
22337;DHT22;14992;50.844;4.418;2023-11-19T15:45:10;13.60;99.90
22337;DHT22;14992;50.844;4.418;2023-11-19T15:47:39;13.60;99.90
22337;DHT22;14992;50.844;4.418;2023-11-19T15:50:08;13.60;99.90
22337;DHT22;14992;50.844;4.418;2023-11-19T15:52:38;13.60;99.90